Time;durP1;ratioP1;P1;durP2;ratioP2;P2;SDS_P1;SDS_P2;PMS_P1;PMS_P2;Temp;Humidity;BMP_temperature;BMP_pressure;BME280_temperature;BME280_humidity;BME280_pressure;Samples;Min_cycle;Max_cycle;Signal;HPM_P1;HPM_P2
2022/02/12 00:01:46;;;;;;;10.90;6.30;;;;;;;2.38;73.90;102895.47;5061157;28;20180;-71
2022/02/12 00:04:11;;;;;;;12.10;4.93;;;;;;;2.41;74.00;102895.72;5061375;28;20161;-69
2022/02/12 00:06:36;;;;;;;12.80;5.80;;;;;;;2.44;74.23;102908.84;5060995;28;20169;-70
2022/02/12 00:09:02;;;;;;;9.07;4.83;;;;;;;2.15;75.74;102905.78;5060845;28;20227;-71
2022/02/12 00:11:27;;;;;;;13.93;5.60;;;;;;;2.21;75.34;102904.47;5061237;28;20194;-70
2022/02/12 00:13:52;;;;;;;16.13;6.23;;;;;;;2.29;75.14;102909.44;5060620;28;20463;-70
2022/02/12 00:16:18;;;;;;;8.10;5.47;;;;;;;2.29;75.39;102912.00;5060824;28;20168;-71
2022/02/12 00:18:43;;;;;;;10.90;6.30;;;;;;;2.21;75.62;102910.50;5061216;28;20540;-69
2022/02/12 00:21:08;;;;;;;10.17;6.00;;;;;;;2.32;75.11;102919.97;5060587;28;20419;-70
2022/02/12 00:23:33;;;;;;;13.27;6.50;;;;;;;2.07;75.92;102917.16;5060461;28;20259;-69
2022/02/12 00:25:59;;;;;;;9.60;5.80;;;;;;;2.17;75.93;102929.06;5061218;28;20177;-69
2022/02/12 00:28:24;;;;;;;17.53;6.40;;;;;;;2.32;75.25;102916.50;5060670;28;20165;-67
2022/02/12 00:30:49;;;;;;;10.47;6.40;;;;;;;2.38;74.88;102921.22;5061084;28;20260;-69
2022/02/12 00:33:17;;;;;;;6.90;5.47;;;;;;;2.60;73.90;102916.97;5060732;28;20204;-70
2022/02/12 00:35:42;;;;;;;14.60;5.73;;;;;;;2.28;75.48;102917.94;5060304;28;20181;-67
2022/02/12 00:38:08;;;;;;;8.20;5.70;;;;;;;2.32;74.87;102916.50;5060523;28;20818;-69
2022/02/12 00:40:33;;;;;;;21.87;6.00;;;;;;;2.34;75.02;102914.94;5060753;28;20231;-69
2022/02/12 00:42:58;;;;;;;9.10;5.50;;;;;;;2.28;75.66;102922.19;5060309;28;20173;-69
2022/02/12 00:45:24;;;;;;;11.50;6.00;;;;;;;2.34;74.69;102920.06;5060139;28;20165;-69
2022/02/12 00:47:49;;;;;;;21.03;6.83;;;;;;;2.20;74.99;102913.84;5059963;28;20173;-68
2022/02/12 00:50:15;;;;;;;8.07;5.30;;;;;;;2.10;76.30;102911.34;5060003;28;20282;-69
2022/02/12 00:52:40;;;;;;;16.50;6.43;;;;;;;2.36;75.06;102911.69;5059932;28;20331;-69
2022/02/12 00:55:06;;;;;;;11.63;5.80;;;;;;;2.27;74.96;102905.81;5060220;28;20161;-68
2022/02/12 00:57:33;;;;;;;16.63;8.20;;;;;;;2.16;75.47;102911.81;5059934;28;20162;-68
2022/02/12 00:59:58;;;;;;;13.20;6.97;;;;;;;2.42;74.97;102911.31;5060201;28;20416;-68
2022/02/12 01:02:24;;;;;;;14.47;7.60;;;;;;;2.34;74.54;102912.34;5059875;28;20396;-68
2022/02/12 01:04:49;;;;;;;12.67;7.43;;;;;;;2.57;75.03;102915.84;5059779;28;20589;-69
2022/02/12 01:07:14;;;;;;;8.70;6.00;;;;;;;8.75;80.37;102878.78;5059821;28;20239;-61
2022/02/12 01:09:39;;;;;;;15.47;5.63;;;;;;;8.63;63.98;102878.09;5059956;28;20177;-68
2022/02/12 01:12:06;;;;;;;20.27;6.40;;;;;;;5.70;65.41;102893.13;5059713;28;20474;-66
2022/02/12 01:14:31;;;;;;;10.20;5.40;;;;;;;4.13;68.04;102892.09;5059610;28;20199;-66
2022/02/12 01:16:57;;;;;;;11.10;5.63;;;;;;;3.27;69.94;102917.72;5060127;28;20416;-66
2022/02/12 01:19:22;;;;;;;20.33;5.50;;;;;;;3.01;71.01;102908.03;5059710;28;20198;-65
2022/02/12 01:21:48;;;;;;;11.70;5.90;;;;;;;2.63;72.44;102906.91;5059620;28;20170;-65
2022/02/12 01:24:13;;;;;;;9.87;5.33;;;;;;;2.70;74.05;102913.44;5059785;28;20170;-65
2022/02/12 01:26:38;;;;;;;10.80;6.10;;;;;;;2.53;74.21;102918.19;5059617;28;20199;-66
2022/02/12 01:29:04;;;;;;;12.27;6.10;;;;;;;2.44;74.79;102911.44;5059561;28;20248;-66
2022/02/12 01:31:29;;;;;;;10.67;6.43;;;;;;;2.43;74.33;102907.03;5059779;28;20173;-66
2022/02/12 01:33:55;;;;;;;11.00;5.50;;;;;;;2.34;74.80;102918.41;5059158;28;20170;-66
2022/02/12 01:36:20;;;;;;;8.47;5.43;;;;;;;2.46;74.64;102920.16;5059224;28;20169;-66
2022/02/12 01:38:45;;;;;;;8.80;5.80;;;;;;;2.52;73.81;102918.94;5059701;28;20162;-65
2022/02/12 01:41:10;;;;;;;13.50;6.07;;;;;;;2.45;73.88;102911.53;5059224;28;20444;-65
2022/02/12 01:43:36;;;;;;;10.63;5.63;;;;;;;2.22;74.38;102916.53;5059124;28;20165;-66
2022/02/12 01:46:01;;;;;;;12.20;6.03;;;;;;;2.42;74.10;102906.16;5059035;28;20165;-65
2022/02/12 01:48:27;;;;;;;16.17;6.03;;;;;;;2.35;74.26;102912.50;5059163;28;20498;-64
2022/02/12 01:50:53;;;;;;;10.03;5.53;;;;;;;2.46;73.91;102909.84;5059071;28;20217;-66
2022/02/12 01:53:22;;;;;;;24.37;6.53;;;;;;;2.45;73.92;102915.75;5059066;28;20532;-66
2022/02/12 01:55:48;;;;;;;9.67;5.93;;;;;;;2.52;73.91;102913.81;5058931;28;20419;-66
2022/02/12 01:58:15;;;;;;;14.40;6.40;;;;;;;2.14;74.05;102908.25;5058943;28;20420;-65
2022/02/12 02:00:41;;;;;;;10.53;6.30;;;;;;;2.65;73.50;102915.66;5059284;28;20416;-65
2022/02/12 02:03:06;;;;;;;13.43;6.60;;;;;;;2.31;73.85;102915.63;5059080;28;20383;-65
2022/02/12 02:05:32;;;;;;;13.17;6.70;;;;;;;2.57;73.59;102908.09;5058783;28;20442;-66
2022/02/12 02:07:58;;;;;;;8.13;5.30;;;;;;;2.41;74.09;102904.34;5058611;28;20248;-65
2022/02/12 02:10:24;;;;;;;14.40;6.37;;;;;;;2.42;73.75;102906.16;5060618;28;20436;-66
2022/02/12 02:12:50;;;;;;;11.10;6.20;;;;;;;2.49;74.20;102897.19;5057841;28;20888;-65
2022/02/12 02:15:15;;;;;;;9.00;6.17;;;;;;;2.46;73.22;102890.16;5058921;28;20404;-66
2022/02/12 02:17:40;;;;;;;11.67;6.87;;;;;;;2.36;73.86;102896.25;5058588;28;20166;-66
2022/02/12 02:20:07;;;;;;;10.20;5.70;;;;;;;2.59;74.06;102891.13;5058618;28;20483;-65
2022/02/12 02:22:49;;;;;;;6.53;5.87;;;;;;;2.27;74.30;102892.97;5058893;28;20458;-66
2022/02/12 02:25:15;;;;;;;10.27;5.70;;;;;;;2.27;74.03;102880.09;5059001;28;20423;-67
2022/02/12 02:27:40;;;;;;;12.93;5.80;;;;;;;2.62;73.43;102878.47;5059743;28;20412;-66
2022/02/12 02:30:13;;;;;;;14.67;6.30;;;;;;;2.64;72.48;102882.94;5060555;28;20162;-67
2022/02/12 02:32:40;;;;;;;11.33;6.03;;;;;;;2.66;71.59;102872.75;5060029;28;20205;-66
2022/02/12 02:35:06;;;;;;;8.47;5.90;;;;;;;2.43;73.12;102868.44;5058928;28;20507;-66
2022/02/12 02:37:31;;;;;;;9.13;6.73;;;;;;;2.50;73.22;102868.09;5058280;28;20853;-66
2022/02/12 02:39:57;;;;;;;8.60;5.73;;;;;;;2.36;72.82;102875.66;5058208;28;20655;-67
2022/02/12 02:42:22;;;;;;;9.57;5.53;;;;;;;2.44;73.07;102865.09;5058631;28;20166;-66
2022/02/12 02:44:47;;;;;;;9.10;6.10;;;;;;;2.67;72.00;102865.16;5057892;28;20177;-67
2022/02/12 02:49:57;;;;;;;8.37;5.70;;;;;;;2.75;71.73;102852.88;5057935;28;20323;-65
2022/02/12 02:58:03;;;;;;;7.27;5.53;;;;;;;2.96;71.22;102848.41;5058071;28;20718;-66
2022/02/12 03:00:28;;;;;;;8.00;6.10;;;;;;;3.10;70.60;102845.97;5057995;28;20452;-66
2022/02/12 03:02:54;;;;;;;10.60;5.73;;;;;;;3.14;69.83;102842.81;5058030;28;20184;-66
2022/02/12 03:05:19;;;;;;;14.53;6.30;;;;;;;2.95;70.67;102838.91;5058073;28;20248;-65
2022/02/12 03:07:44;;;;;;;7.60;6.27;;;;;;;2.96;70.49;102843.25;5057844;28;20539;-65
2022/02/12 03:10:10;;;;;;;11.07;6.60;;;;;;;3.35;69.95;102839.25;5056962;28;20180;-66
2022/02/12 03:12:35;;;;;;;10.27;5.77;;;;;;;3.39;69.04;102831.75;5058390;28;20194;-66
2022/02/12 03:15:02;;;;;;;13.77;6.30;;;;;;;3.36;69.15;102827.28;5058393;28;20165;-65
2022/02/12 03:17:27;;;;;;;10.97;5.53;;;;;;;3.06;70.60;102828.47;5057857;28;20173;-65
2022/02/12 03:19:53;;;;;;;13.33;6.53;;;;;;;3.23;70.80;102828.03;5058032;28;20408;-65
2022/02/12 03:22:18;;;;;;;11.10;6.50;;;;;;;3.12;70.39;102828.94;5057539;28;20200;-65
2022/02/12 03:24:44;;;;;;;12.47;7.50;;;;;;;3.25;70.02;102833.31;5059575;28;20165;-65
2022/02/12 03:27:09;;;;;;;12.47;8.03;;;;;;;3.45;69.41;102824.44;5062216;28;20192;-66
2022/02/12 03:29:34;;;;;;;10.40;6.33;;;;;;;3.31;69.06;102829.50;5061865;28;20224;-64
2022/02/12 03:32:00;;;;;;;17.90;7.20;;;;;;;3.29;69.56;102825.94;5061673;28;20205;-65
2022/02/12 03:34:25;;;;;;;15.13;7.00;;;;;;;3.29;68.89;102825.94;5061914;28;20162;-64
2022/02/12 03:36:51;;;;;;;12.70;7.20;;;;;;;3.27;69.51;102821.44;5061627;28;20172;-65
2022/02/12 03:39:16;;;;;;;9.50;7.03;;;;;;;3.01;70.85;102812.69;5061605;28;20201;-66
2022/02/12 03:41:41;;;;;;;12.87;7.30;;;;;;;3.23;70.84;102819.44;5061807;28;20241;-65
2022/02/12 03:44:07;;;;;;;11.87;7.57;;;;;;;3.46;69.52;102828.84;5061338;28;20532;-65
2022/02/12 03:46:35;;;;;;;16.03;7.63;;;;;;;3.24;69.63;102821.22;5060675;28;20180;-67
2022/02/12 03:49:00;;;;;;;16.37;7.67;;;;;;;3.16;69.83;102825.81;5061811;28;20189;-65
2022/02/12 03:51:25;;;;;;;15.23;7.47;;;;;;;3.17;70.54;102820.78;5061061;28;20452;-65
2022/02/12 03:53:50;;;;;;;11.90;7.30;;;;;;;3.31;69.93;102826.94;5061034;28;20169;-66
2022/02/12 03:56:16;;;;;;;12.60;7.50;;;;;;;3.36;69.70;102824.69;5061780;28;20178;-64
2022/02/12 03:58:41;;;;;;;9.60;6.33;;;;;;;3.18;69.88;102820.00;5061215;28;20170;-66
2022/02/12 04:01:07;;;;;;;12.93;6.73;;;;;;;3.31;69.21;102818.31;5061187;28;20218;-65
2022/02/12 04:03:32;;;;;;;15.37;6.77;;;;;;;3.16;69.51;102823.25;5061573;28;20220;-64
2022/02/12 04:05:57;;;;;;;16.80;7.23;;;;;;;3.41;69.32;102819.88;5060982;28;20223;-65
2022/02/12 04:08:23;;;;;;;11.67;7.00;;;;;;;3.34;69.30;102819.44;5061232;28;20181;-65
2022/02/12 04:10:49;;;;;;;9.50;7.13;;;;;;;3.43;68.49;102818.31;5061540;28;20189;-65
2022/02/12 04:13:15;;;;;;;11.10;6.50;;;;;;;3.48;67.43;102814.38;5060761;28;20550;-66
2022/02/12 04:15:41;;;;;;;11.30;6.50;;;;;;;3.61;66.72;102813.56;5060141;28;20181;-66
2022/02/12 04:18:13;;;;;;;18.40;7.30;;;;;;;3.79;66.76;102803.66;5060697;28;20397;-65
2022/02/12 04:20:39;;;;;;;9.63;7.00;;;;;;;3.80;66.29;102800.28;5060752;28;20227;-66
2022/02/12 04:23:05;;;;;;;12.57;6.30;;;;;;;3.86;66.96;102799.03;5060330;28;20682;-65
2022/02/12 04:25:31;;;;;;;9.20;6.27;;;;;;;3.62;69.60;102797.31;5061144;28;20531;-65
2022/02/12 04:27:56;;;;;;;11.17;5.83;;;;;;;3.58;69.52;102793.59;5060727;28;20474;-66
2022/02/12 04:30:22;;;;;;;9.90;5.80;;;;;;;3.40;69.50;102802.59;5060909;28;20459;-66
2022/02/12 04:32:47;;;;;;;17.77;5.93;;;;;;;3.50;68.32;102790.47;5061021;28;20190;-65
2022/02/12 04:35:13;;;;;;;6.70;5.60;;;;;;;3.72;69.33;102802.31;5059406;28;20239;-65
2022/02/12 04:37:39;;;;;;;10.03;6.07;;;;;;;3.39;68.64;102801.72;5059076;28;20261;-65
2022/02/12 04:40:05;;;;;;;10.43;6.60;;;;;;;3.52;67.90;102793.19;5060925;28;20716;-65
2022/02/12 04:42:30;;;;;;;12.57;6.40;;;;;;;3.37;68.15;102788.72;5060331;28;20223;-65
2022/02/12 04:44:56;;;;;;;10.20;6.63;;;;;;;3.75;68.03;102791.31;5060258;28;20719;-65
2022/02/12 04:47:22;;;;;;;11.33;6.40;;;;;;;3.64;66.77;102788.91;5060822;28;20188;-66
2022/02/12 04:49:49;;;;;;;13.40;6.40;;;;;;;3.50;66.78;102784.44;5060155;28;20228;-65
2022/02/12 04:52:16;;;;;;;12.60;5.83;;;;;;;3.61;66.09;102787.78;5059344;28;20462;-66
2022/02/12 04:54:41;;;;;;;8.53;5.90;;;;;;;3.52;66.02;102778.59;5060364;28;20415;-65
2022/02/12 04:57:06;;;;;;;16.23;6.47;;;;;;;3.61;66.34;102772.28;5059974;28;20669;-66
2022/02/12 04:59:32;;;;;;;11.87;6.60;;;;;;;3.79;65.91;102777.84;5060025;28;20166;-66
2022/02/12 05:01:58;;;;;;;16.23;6.40;;;;;;;3.93;65.12;102771.09;5060377;28;20172;-65
2022/02/12 05:04:23;;;;;;;7.10;5.37;;;;;;;3.66;65.60;102761.50;5059668;28;20478;-65
2022/02/12 05:06:49;;;;;;;9.97;6.27;;;;;;;3.94;65.00;102767.69;5060044;28;20181;-65
2022/02/12 05:09:15;;;;;;;10.13;6.03;;;;;;;3.54;65.47;102761.56;5060373;28;20422;-66
2022/02/12 05:11:41;;;;;;;14.67;5.47;;;;;;;3.83;65.07;102760.13;5059622;28;20459;-65
2022/02/12 05:14:07;;;;;;;11.87;6.60;;;;;;;3.71;64.41;102759.28;5059570;28;20423;-65
2022/02/12 05:16:33;;;;;;;15.67;6.10;;;;;;;3.79;64.11;102765.88;5060093;28;20408;-66
2022/02/12 05:18:58;;;;;;;14.03;6.00;;;;;;;3.87;64.17;102753.50;5059856;28;20817;-66
2022/02/12 05:21:23;;;;;;;9.67;5.30;;;;;;;3.87;64.00;102750.94;5059738;28;20170;-66
2022/02/12 05:23:49;;;;;;;11.40;5.50;;;;;;;3.89;63.86;102744.19;5060654;28;20189;-66
2022/02/12 05:26:16;;;;;;;9.67;5.60;;;;;;;3.96;63.62;102737.75;5058951;28;20169;-65
2022/02/12 05:28:41;;;;;;;8.33;4.80;;;;;;;3.91;64.05;102741.69;5059792;28;20169;-66
2022/02/12 05:31:06;;;;;;;7.77;5.53;;;;;;;3.58;63.86;102746.31;5061049;28;20419;-65
2022/02/12 05:33:34;;;;;;;9.50;5.20;;;;;;;3.78;62.93;102742.53;5062081;28;20209;-65
2022/02/12 05:35:59;;;;;;;10.30;4.67;;;;;;;3.51;63.89;102740.69;5061488;28;20177;-65
2022/02/12 05:38:24;;;;;;;9.83;5.20;;;;;;;3.67;64.73;102732.34;5061911;28;20419;-65
2022/02/12 05:40:49;;;;;;;6.80;5.10;;;;;;;3.78;63.82;102732.22;5060269;28;20598;-65
2022/02/12 05:43:15;;;;;;;7.63;4.33;;;;;;;3.43;64.95;102730.63;5059654;28;20169;-66
2022/02/12 05:45:41;;;;;;;7.10;4.37;;;;;;;3.62;64.72;102728.56;5059890;28;20162;-65
2022/02/12 05:48:07;;;;;;;8.60;4.70;;;;;;;3.42;64.33;102729.72;5059540;28;20215;-65
2022/02/12 05:50:32;;;;;;;7.07;4.47;;;;;;;3.56;64.12;102735.88;5041905;28;20476;-66
2022/02/12 05:52:58;;;;;;;6.57;4.80;;;;;;;3.34;64.45;102725.72;5059648;28;20196;-65
2022/02/12 05:55:24;;;;;;;9.33;4.60;;;;;;;3.46;64.10;102728.28;5058991;28;20538;-66
2022/02/12 05:57:56;;;;;;;12.47;4.40;;;;;;;3.37;64.53;102731.09;5058981;28;20169;-66
2022/02/12 06:00:21;;;;;;;6.63;4.37;;;;;;;3.39;63.79;102733.78;5059382;28;20542;-65
2022/02/12 06:02:46;;;;;;;6.27;4.03;;;;;;;3.20;65.48;102722.16;5058966;28;20491;-66
2022/02/12 06:05:12;;;;;;;7.90;4.70;;;;;;;3.40;64.81;102727.81;5058682;28;20425;-66
2022/02/12 06:07:37;;;;;;;11.87;4.87;;;;;;;3.31;63.98;102728.06;5059396;28;20158;-65
2022/02/12 06:10:03;;;;;;;9.20;3.80;;;;;;;3.29;63.41;102733.13;5058706;28;20169;-65
2022/02/12 06:12:28;;;;;;;7.53;4.33;;;;;;;3.35;64.21;102728.38;5058710;28;20215;-65
2022/02/12 06:14:53;;;;;;;7.77;4.33;;;;;;;3.25;63.24;102733.69;5058877;28;20558;-65
2022/02/12 06:17:19;;;;;;;8.50;5.00;;;;;;;3.39;62.39;102728.63;5058510;28;20165;-65
2022/02/12 06:19:44;;;;;;;9.13;4.43;;;;;;;3.33;63.43;102722.25;5058749;28;20179;-65
2022/02/12 06:22:09;;;;;;;5.53;3.87;;;;;;;3.34;62.83;102715.41;5058928;28;20185;-65
2022/02/12 06:24:35;;;;;;;7.33;4.20;;;;;;;3.16;63.55;102720.16;5058464;28;20173;-65
2022/02/12 06:27:04;;;;;;;8.70;3.90;;;;;;;3.20;64.09;102710.16;5057982;28;20181;-65
2022/02/12 06:29:29;;;;;;;7.00;4.27;;;;;;;2.98;64.31;102714.56;5059173;28;20256;-65
2022/02/12 06:31:54;;;;;;;8.63;6.77;;;;;;;3.18;63.35;102709.16;5058309;28;20916;-65
2022/02/12 06:34:20;;;;;;;6.53;4.33;;;;;;;2.95;64.00;102707.50;5058182;28;20217;-66
2022/02/12 06:36:45;;;;;;;10.00;4.20;;;;;;;3.18;63.52;102710.81;5058619;28;20169;-66
2022/02/12 06:39:10;;;;;;;5.67;4.00;;;;;;;3.27;63.11;102708.91;5058361;28;20404;-65
2022/02/12 06:41:35;;;;;;;6.93;4.20;;;;;;;3.35;63.61;102705.19;5058254;28;20176;-65
2022/02/12 06:44:01;;;;;;;11.93;4.10;;;;;;;3.07;63.41;102706.59;5058424;28;20162;-65
2022/02/12 06:46:27;;;;;;;7.57;4.20;;;;;;;3.19;63.60;102705.81;5058170;28;20184;-65
2022/02/12 06:48:52;;;;;;;6.70;4.23;;;;;;;3.29;63.64;102702.19;5058376;28;20169;-65
2022/02/12 06:51:17;;;;;;;8.87;3.70;;;;;;;2.80;63.63;102701.22;5058027;28;20231;-65
2022/02/12 06:53:43;;;;;;;5.40;3.00;;;;;;;2.97;64.46;102694.75;5057857;28;20215;-65
2022/02/12 06:56:09;;;;;;;8.13;4.00;;;;;;;3.19;64.10;102692.00;5058373;28;20208;-66
2022/02/12 06:58:34;;;;;;;9.70;6.33;;;;;;;3.03;62.89;102693.50;5057340;28;20412;-66
2022/02/12 07:01:00;;;;;;;9.20;4.00;;;;;;;3.14;63.38;102693.34;5057890;28;20180;-66
2022/02/12 07:03:25;;;;;;;8.93;3.77;;;;;;;3.37;64.25;102689.84;5058860;28;20197;-65
2022/02/12 07:05:51;;;;;;;5.30;3.47;;;;;;;3.56;64.06;102699.78;5057991;28;20174;-66
2022/02/12 07:08:16;;;;;;;14.70;4.03;;;;;;;3.32;62.88;102701.53;5057960;28;20257;-65
2022/02/12 07:10:41;;;;;;;5.73;3.50;;;;;;;3.46;63.48;102697.31;5058499;28;20218;-65
2022/02/12 07:13:06;;;;;;;13.17;4.60;;;;;;;3.67;62.43;102690.22;5058169;28;20208;-66
2022/02/12 07:15:32;;;;;;;9.10;4.53;;;;;;;3.35;62.43;102694.00;5057853;28;20170;-65
2022/02/12 07:17:58;;;;;;;6.30;4.20;;;;;;;3.58;62.43;102690.44;5058629;28;20498;-66
2022/02/12 07:20:23;;;;;;;15.33;3.70;;;;;;;3.48;62.44;102688.91;5057082;28;20448;-65
2022/02/12 07:22:49;;;;;;;8.00;4.13;;;;;;;3.79;62.93;102690.13;5057677;28;20185;-65
2022/02/12 07:25:15;;;;;;;6.60;3.30;;;;;;;3.60;63.48;102694.03;5058017;28;20520;-65
2022/02/12 07:27:41;;;;;;;6.67;3.73;;;;;;;3.90;62.18;102694.38;5057792;28;20215;-65
2022/02/12 07:30:08;;;;;;;6.27;3.67;;;;;;;3.66;61.70;102678.97;5057777;28;20462;-65
2022/02/12 07:32:36;;;;;;;8.77;3.73;;;;;;;3.73;61.49;102684.56;5057271;28;20446;-66
2022/02/12 07:35:05;;;;;;;6.73;4.23;;;;;;;3.84;61.54;102683.59;5056725;28;20412;-66
2022/02/12 07:37:32;;;;;;;5.97;3.83;;;;;;;4.05;61.66;102692.81;5057432;28;20412;-65
2022/02/12 07:39:58;;;;;;;7.63;4.17;;;;;;;3.83;61.44;102689.56;5058161;28;20470;-66
2022/02/12 07:42:23;;;;;;;8.67;4.17;;;;;;;4.76;59.92;102685.38;5057522;28;20877;-66
2022/02/12 07:44:48;;;;;;;8.57;4.37;;;;;;;6.45;55.82;102661.19;5057253;28;20170;-66
2022/02/12 07:47:13;;;;;;;3.90;3.50;;;;;;;6.37;54.14;102678.91;5058168;28;20187;-65
2022/02/12 07:49:39;;;;;;;7.50;3.90;;;;;;;6.04;55.65;102673.50;5057438;28;20174;-66
2022/02/12 07:52:04;;;;;;;8.10;4.30;;;;;;;5.62;55.77;102676.97;5057380;28;20252;-66
2022/02/12 07:54:29;;;;;;;12.87;4.50;;;;;;;5.21;56.94;102681.38;5057844;28;20226;-65
2022/02/12 07:56:56;;;;;;;7.17;4.07;;;;;;;5.05;57.69;102685.56;5057544;28;20184;-66
2022/02/12 07:59:22;;;;;;;7.57;4.17;;;;;;;5.29;57.80;102679.25;5057401;28;20176;-66
2022/02/12 08:01:48;;;;;;;9.10;4.67;;;;;;;6.26;55.83;102667.00;5058222;28;20798;-65
2022/02/12 08:04:13;;;;;;;5.60;3.93;;;;;;;7.53;52.24;102658.47;5057551;28;20402;-65
2022/02/12 08:09:22;;;;;;;8.47;4.40;;;;;;;9.39;46.65;102651.13;5057360;28;20180;-65
2022/02/12 08:12:08;;;;;;;10.03;4.00;;;;;;;9.10;46.61;102653.25;5059165;28;20827;-67
2022/02/12 08:14:33;;;;;;;8.50;4.20;;;;;;;10.01;45.09;102643.41;5060969;28;20454;-66
2022/02/12 08:16:59;;;;;;;6.10;3.97;;;;;;;8.44;48.88;102647.47;5060945;28;20387;-67
2022/02/12 08:19:25;;;;;;;9.63;4.50;;;;;;;9.93;45.05;102644.78;5061493;28;20212;-66
2022/02/12 08:21:51;;;;;;;9.97;4.40;;;;;;;9.63;45.26;102645.22;5060708;28;20170;-66
2022/02/12 08:24:17;;;;;;;13.03;7.33;;;;;;;9.12;45.31;102649.84;5059550;28;20429;-67
2022/02/12 08:26:42;;;;;;;7.57;4.57;;;;;;;9.74;44.10;102640.47;5059660;28;20423;-67
2022/02/12 08:29:07;;;;;;;7.57;4.30;;;;;;;9.95;44.11;102646.63;5060831;28;20177;-67
2022/02/12 08:31:33;;;;;;;7.53;4.60;;;;;;;9.78;42.89;102647.59;5060475;28;20173;-68
2022/02/12 08:33:58;;;;;;;12.43;5.70;;;;;;;9.58;44.22;102649.38;5060780;28;20181;-68
2022/02/12 08:36:23;;;;;;;10.40;5.00;;;;;;;10.17;42.70;102644.94;5060505;28;20169;-67
2022/02/12 08:38:49;;;;;;;9.03;5.30;;;;;;;11.11;41.23;102635.66;5060709;28;20508;-67
2022/02/12 08:41:14;;;;;;;8.23;5.73;;;;;;;9.77;42.46;102653.66;5060685;28;20524;-67
2022/02/12 08:43:39;;;;;;;10.27;4.90;;;;;;;11.26;40.65;102637.09;5062364;28;20242;-68
2022/02/12 08:46:05;;;;;;;10.67;5.70;;;;;;;11.53;39.99;102626.75;5061132;28;20184;-69
2022/02/12 08:48:31;;;;;;;10.17;5.27;;;;;;;11.72;39.35;102630.91;5062055;28;20166;-66
2022/02/12 08:50:56;;;;;;;8.83;5.33;;;;;;;12.09;38.58;102626.97;5060171;28;20235;-65
2022/02/12 08:53:22;;;;;;;10.40;5.63;;;;;;;11.76;39.24;102637.16;5060177;28;20455;-67
2022/02/12 08:55:47;;;;;;;9.03;5.60;;;;;;;11.29;40.01;102631.97;5062967;28;20173;-69
2022/02/12 08:58:12;;;;;;;12.30;6.30;;;;;;;11.35;38.95;102628.69;5060900;28;20551;-68
2022/02/12 09:00:38;;;;;;;6.30;5.03;;;;;;;10.87;39.88;102634.75;5059990;28;20196;-66
2022/02/12 09:03:03;;;;;;;9.90;5.20;;;;;;;10.72;40.24;102625.47;5060639;28;20162;-66
2022/02/12 09:05:28;;;;;;;6.57;5.03;;;;;;;11.06;39.87;102618.94;5059905;28;20173;-69
2022/02/12 09:07:54;;;;;;;7.23;5.77;;;;;;;11.55;38.45;102619.84;5062108;28;20169;-67
2022/02/12 09:10:19;;;;;;;9.43;5.40;;;;;;;11.25;38.30;102617.91;5060333;28;20455;-65
2022/02/12 09:12:45;;;;;;;10.43;5.20;;;;;;;10.75;38.88;102611.66;5059749;28;20567;-66
2022/02/12 09:15:10;;;;;;;8.70;5.77;;;;;;;11.20;38.95;102605.50;5059806;28;20196;-68
2022/02/12 09:17:35;;;;;;;10.40;5.03;;;;;;;10.58;39.27;102604.06;5060266;28;20158;-66
2022/02/12 09:20:00;;;;;;;7.10;5.50;;;;;;;9.92;40.03;102606.56;5059839;28;20256;-68
2022/02/12 09:22:26;;;;;;;15.90;5.53;;;;;;;10.04;39.95;102607.06;5058208;28;20217;-67
2022/02/12 09:24:51;;;;;;;11.50;5.10;;;;;;;9.91;40.20;102609.97;5059788;28;20182;-67
2022/02/12 09:27:16;;;;;;;8.73;5.57;;;;;;;10.09;41.03;102605.53;5059466;28;20170;-70
2022/02/12 09:29:42;;;;;;;8.90;5.07;;;;;;;9.43;40.68;102606.19;5059631;28;20169;-70
2022/02/12 09:32:08;;;;;;;8.97;5.00;;;;;;;9.26;41.24;102602.81;5059677;28;20272;-67
2022/02/12 09:34:33;;;;;;;9.70;5.40;;;;;;;8.70;41.77;102608.88;5059193;28;20402;-66
2022/02/12 09:36:58;;;;;;;6.80;4.80;;;;;;;10.04;40.23;102599.25;5059273;28;20566;-67
2022/02/12 09:39:23;;;;;;;10.43;4.90;;;;;;;10.22;39.61;102593.88;5059803;28;20530;-68
2022/02/12 09:41:49;;;;;;;7.93;5.50;;;;;;;10.44;39.50;102600.00;5058539;28;20227;-65
2022/02/12 09:44:14;;;;;;;7.40;5.30;;;;;;;10.28;39.88;102595.84;5059344;28;20211;-65
2022/02/12 09:46:49;;;;;;;9.07;5.10;;;;;;;10.85;38.07;102586.81;5059815;28;20483;-67
2022/02/12 09:49:14;;;;;;;11.80;5.47;;;;;;;10.73;38.01;102584.59;5058875;28;20172;-66
2022/02/12 09:51:40;;;;;;;10.67;5.10;;;;;;;10.51;38.29;102580.28;5059383;28;20718;-67
2022/02/12 09:54:05;;;;;;;9.70;5.50;;;;;;;10.59;38.30;102586.69;5059456;28;20443;-69
2022/02/12 09:56:34;;;;;;;8.53;5.43;;;;;;;11.03;38.15;102584.91;5058559;28;20288;-66
2022/02/12 09:58:59;;;;;;;11.27;5.50;;;;;;;10.18;38.46;102580.69;5058951;28;20182;-65
2022/02/12 10:01:24;;;;;;;15.40;10.27;;;;;;;10.59;38.50;102573.66;5059119;28;20507;-67
2022/02/12 10:03:51;;;;;;;15.10;7.33;;;;;;;10.91;37.05;102574.00;5058717;28;20180;-66
2022/02/12 10:06:16;;;;;;;8.03;5.60;;;;;;;11.58;36.23;102557.28;5058815;28;20176;-65
2022/02/12 10:09:01;;;;;;;11.67;6.60;;;;;;;11.82;36.48;102566.78;5059181;28;20387;-67
2022/02/12 10:11:38;;;;;;;11.03;5.97;;;;;;;12.53;34.96;102556.03;5058953;28;20185;-70
2022/02/12 10:14:11;;;;;;;14.33;7.10;;;;;;;12.40;34.90;102552.16;5058747;28;20830;-69
2022/02/12 10:17:02;;;;;;;11.17;5.23;;;;;;;12.42;34.21;102562.66;5058701;28;20416;-67
2022/02/12 10:19:33;;;;;;;9.30;5.10;;;;;;;11.51;35.20;102557.88;5058640;28;20413;-66
2022/02/12 10:22:07;;;;;;;9.63;5.97;;;;;;;11.75;35.75;102559.59;5058528;28;20442;-66
2022/02/12 10:24:47;;;;;;;5.80;4.50;;;;;;;11.42;36.67;102558.47;5058238;28;20431;-66
2022/02/12 10:27:13;;;;;;;10.97;6.90;;;;;;;11.76;36.02;102562.25;5052068;28;20415;-67
2022/02/12 10:29:39;;;;;;;10.47;5.30;;;;;;;11.18;36.40;102552.38;5040748;28;20694;-66
2022/02/12 10:32:04;;;;;;;11.53;5.40;;;;;;;11.00;36.29;102553.47;5058376;28;20467;-67
2022/02/12 10:34:42;;;;;;;9.90;5.63;;;;;;;11.27;35.71;102553.59;5057465;28;20174;-67
2022/02/12 10:37:08;;;;;;;8.80;5.13;;;;;;;11.19;35.91;102539.38;5057740;28;20184;-67
2022/02/12 10:39:39;;;;;;;8.33;5.13;;;;;;;10.62;36.52;102545.06;5058358;28;20419;-67
2022/02/12 10:42:06;;;;;;;10.53;5.33;;;;;;;10.64;36.47;102548.63;5058635;28;20516;-66
2022/02/12 10:44:32;;;;;;;8.10;4.60;;;;;;;10.58;36.28;102546.69;5039860;28;20478;-67
2022/02/12 10:46:58;;;;;;;6.80;5.20;;;;;;;11.10;35.99;102533.81;5038118;28;20409;-68
2022/02/12 10:49:24;;;;;;;5.07;3.90;;;;;;;10.03;37.11;102531.44;5038535;28;20170;-71
2022/02/12 10:51:52;;;;;;;7.07;4.40;;;;;;;10.70;36.96;102527.09;5038305;28;20456;-71
2022/02/12 10:54:19;;;;;;;8.37;5.50;;;;;;;10.99;35.38;102520.38;5037410;28;20441;-71
2022/02/12 10:57:00;;;;;;;7.40;4.10;;;;;;;10.44;36.97;102513.97;5038598;28;20449;-71
2022/02/12 10:59:25;;;;;;;6.47;4.30;;;;;;;9.97;37.10;102521.63;5038037;28;20508;-70
2022/02/12 11:01:51;;;;;;;6.97;4.77;;;;;;;10.27;37.18;102513.28;5057240;28;20494;-69
2022/02/12 11:04:18;;;;;;;7.83;5.00;;;;;;;9.82;37.34;102505.38;5057242;28;20170;-69
2022/02/12 11:06:46;;;;;;;6.37;4.70;;;;;;;10.47;36.83;102516.69;5057514;28;20395;-70
2022/02/12 11:09:12;;;;;;;7.73;4.60;;;;;;;9.82;36.83;102506.25;5043017;28;20416;-67
2022/02/12 11:11:38;;;;;;;7.50;4.90;;;;;;;10.21;36.58;102494.78;5058950;28;20485;-68
2022/02/12 11:14:03;;;;;;;8.00;5.13;;;;;;;11.04;36.01;102491.81;5057598;28;20419;-69
2022/02/12 11:16:29;;;;;;;9.30;5.70;;;;;;;10.36;36.49;102487.59;5057713;28;20458;-69
2022/02/12 11:18:55;;;;;;;6.80;4.00;;;;;;;9.89;36.93;102473.53;5058001;28;20173;-69
2022/02/12 11:21:21;;;;;;;7.40;4.97;;;;;;;9.48;37.65;102480.53;5058408;28;20208;-69
2022/02/12 11:24:08;;;;;;;7.50;4.63;;;;;;;10.91;35.90;102475.72;5059583;28;20484;-69
2022/02/12 11:26:47;;;;;;;8.20;5.80;;;;;;;10.77;35.94;102466.50;5060049;28;20522;-68
2022/02/12 11:29:36;;;;;;;4.63;4.10;;;;;;;10.68;36.41;102474.00;5057960;28;20634;-68
2022/02/12 11:32:26;;;;;;;6.70;5.13;;;;;;;11.58;34.95;102462.34;5057597;28;20459;-68
2022/02/12 11:35:10;;;;;;;8.60;5.33;;;;;;;10.93;35.15;102454.91;5057667;28;20420;-69